sensor_id;sensor_type;location;lat;lon;timestamp;pressure;altitude;pressure_sealevel;temperature;humidity
13695;BME280;6919;52.344;14.518;2023-01-28T00:02:27;101762.38;;;-0.93;100.00
13695;BME280;6919;52.344;14.518;2023-01-28T00:04:56;101764.69;;;-1.09;100.00
13695;BME280;6919;52.344;14.518;2023-01-28T00:07:25;101769.16;;;-1.11;100.00
13695;BME280;6919;52.344;14.518;2023-01-28T00:09:53;101757.31;;;-1.24;100.00
13695;BME280;6919;52.344;14.518;2023-01-28T00:12:21;101760.78;;;-1.22;100.00
13695;BME280;6919;52.344;14.518;2023-01-28T00:14:50;101757.13;;;-1.18;100.00
13695;BME280;6919;52.344;14.518;2023-01-28T00:17:19;101752.06;;;-1.24;100.00
13695;BME280;6919;52.344;14.518;2023-01-28T00:19:48;101759.31;;;-1.30;100.00
13695;BME280;6919;52.344;14.518;2023-01-28T00:22:16;101763.09;;;-1.39;100.00
13695;BME280;6919;52.344;14.518;2023-01-28T00:24:45;101759.56;;;-1.38;100.00
13695;BME280;6919;52.344;14.518;2023-01-28T00:27:13;101757.56;;;-1.31;100.00
13695;BME280;6919;52.344;14.518;2023-01-28T00:29:41;101767.59;;;-1.42;100.00
13695;BME280;6919;52.344;14.518;2023-01-28T00:32:10;101763.09;;;-1.39;100.00
13695;BME280;6919;52.344;14.518;2023-01-28T00:34:39;101761.38;;;-1.40;100.00
13695;BME280;6919;52.344;14.518;2023-01-28T00:37:08;101753.84;;;-1.50;100.00
13695;BME280;6919;52.344;14.518;2023-01-28T00:39:36;101766.84;;;-1.46;100.00
13695;BME280;6919;52.344;14.518;2023-01-28T00:42:04;101763.00;;;-1.36;100.00
13695;BME280;6919;52.344;14.518;2023-01-28T00:44:32;101766.75;;;-1.43;100.00
13695;BME280;6919;52.344;14.518;2023-01-28T00:47:02;101765.00;;;-1.44;100.00
13695;BME280;6919;52.344;14.518;2023-01-28T00:49:30;101766.91;;;-1.47;100.00
13695;BME280;6919;52.344;14.518;2023-01-28T00:52:00;101771.88;;;-1.40;100.00
13695;BME280;6919;52.344;14.518;2023-01-28T00:54:28;101763.44;;;-1.49;100.00
13695;BME280;6919;52.344;14.518;2023-01-28T00:56:58;101773.13;;;-1.50;100.00
13695;BME280;6919;52.344;14.518;2023-01-28T00:59:26;101776.69;;;-1.52;100.00
13695;BME280;6919;52.344;14.518;2023-01-28T01:01:54;101776.25;;;-1.39;100.00
13695;BME280;6919;52.344;14.518;2023-01-28T01:04:38;101777.41;;;-1.47;100.00
13695;BME280;6919;52.344;14.518;2023-01-28T01:07:08;101771.25;;;-1.46;100.00
13695;BME280;6919;52.344;14.518;2023-01-28T01:09:36;101774.84;;;-1.49;100.00
13695;BME280;6919;52.344;14.518;2023-01-28T01:12:05;101778.06;;;-1.41;100.00
13695;BME280;6919;52.344;14.518;2023-01-28T01:14:34;101782.06;;;-1.55;100.00
13695;BME280;6919;52.344;14.518;2023-01-28T01:17:03;101784.84;;;-1.60;100.00
13695;BME280;6919;52.344;14.518;2023-01-28T01:19:31;101791.81;;;-1.59;100.00
13695;BME280;6919;52.344;14.518;2023-01-28T01:21:59;101790.84;;;-1.56;100.00
13695;BME280;6919;52.344;14.518;2023-01-28T01:24:29;101799.78;;;-1.62;100.00
13695;BME280;6919;52.344;14.518;2023-01-28T01:27:00;101794.75;;;-1.68;100.00
13695;BME280;6919;52.344;14.518;2023-01-28T01:29:28;101800.06;;;-1.69;100.00
13695;BME280;6919;52.344;14.518;2023-01-28T01:31:56;101795.56;;;-1.66;100.00
13695;BME280;6919;52.344;14.518;2023-01-28T01:34:25;101795.69;;;-1.70;100.00
13695;BME280;6919;52.344;14.518;2023-01-28T01:36:53;101796.13;;;-1.84;100.00
13695;BME280;6919;52.344;14.518;2023-01-28T01:39:21;101796.31;;;-1.90;100.00
13695;BME280;6919;52.344;14.518;2023-01-28T01:41:51;101796.03;;;-1.81;100.00
13695;BME280;6919;52.344;14.518;2023-01-28T01:44:54;101790.59;;;-1.75;100.00
13695;BME280;6919;52.344;14.518;2023-01-28T01:47:28;101796.06;;;-1.55;100.00
13695;BME280;6919;52.344;14.518;2023-01-28T01:50:03;101794.31;;;-1.82;100.00
13695;BME280;6919;52.344;14.518;2023-01-28T01:52:35;101800.22;;;-2.03;100.00
13695;BME280;6919;52.344;14.518;2023-01-28T01:55:09;101798.81;;;-2.14;100.00
13695;BME280;6919;52.344;14.518;2023-01-28T01:57:43;101804.28;;;-2.22;100.00
13695;BME280;6919;52.344;14.518;2023-01-28T02:00:13;101808.59;;;-2.19;100.00
13695;BME280;6919;52.344;14.518;2023-01-28T02:02:45;101808.41;;;-2.13;100.00
13695;BME280;6919;52.344;14.518;2023-01-28T02:05:18;101807.38;;;-2.08;100.00
13695;BME280;6919;52.344;14.518;2023-01-28T02:07:50;101807.34;;;-2.06;100.00
13695;BME280;6919;52.344;14.518;2023-01-28T02:10:22;101814.25;;;-2.04;100.00
13695;BME280;6919;52.344;14.518;2023-01-28T02:12:56;101813.50;;;-2.07;100.00
13695;BME280;6919;52.344;14.518;2023-01-28T02:15:26;101818.13;;;-1.86;100.00
13695;BME280;6919;52.344;14.518;2023-01-28T02:17:56;101811.84;;;-1.82;100.00
13695;BME280;6919;52.344;14.518;2023-01-28T02:20:53;101809.19;;;-1.81;100.00
13695;BME280;6919;52.344;14.518;2023-01-28T02:23:45;101809.75;;;-1.71;100.00
13695;BME280;6919;52.344;14.518;2023-01-28T02:26:39;101805.56;;;-1.51;100.00
13695;BME280;6919;52.344;14.518;2023-01-28T02:29:19;101819.72;;;-1.55;100.00
13695;BME280;6919;52.344;14.518;2023-01-28T02:31:59;101807.09;;;-1.44;100.00
13695;BME280;6919;52.344;14.518;2023-01-28T02:34:37;101814.94;;;-1.42;100.00
13695;BME280;6919;52.344;14.518;2023-01-28T02:37:15;101817.28;;;-1.33;100.00
13695;BME280;6919;52.344;14.518;2023-01-28T02:39:51;101815.00;;;-1.44;100.00
13695;BME280;6919;52.344;14.518;2023-01-28T02:42:26;101806.00;;;-1.37;100.00
13695;BME280;6919;52.344;14.518;2023-01-28T02:44:57;101805.94;;;-1.35;100.00
13695;BME280;6919;52.344;14.518;2023-01-28T02:47:25;101801.56;;;-1.35;100.00
13695;BME280;6919;52.344;14.518;2023-01-28T02:50:13;101803.06;;;-1.28;100.00
13695;BME280;6919;52.344;14.518;2023-01-28T02:52:57;101799.56;;;-1.28;100.00
13695;BME280;6919;52.344;14.518;2023-01-28T02:55:53;101795.69;;;-1.17;100.00
13695;BME280;6919;52.344;14.518;2023-01-28T02:58:31;101800.19;;;-1.20;100.00
13695;BME280;6919;52.344;14.518;2023-01-28T03:01:10;101792.16;;;-1.17;100.00
13695;BME280;6919;52.344;14.518;2023-01-28T03:03:52;101794.19;;;-0.99;100.00
13695;BME280;6919;52.344;14.518;2023-01-28T03:06:29;101791.94;;;-1.10;100.00
13695;BME280;6919;52.344;14.518;2023-01-28T03:09:03;101796.31;;;-1.10;100.00
13695;BME280;6919;52.344;14.518;2023-01-28T03:11:54;101807.09;;;-0.92;100.00
13695;BME280;6919;52.344;14.518;2023-01-28T03:14:44;101800.47;;;-1.03;100.00
13695;BME280;6919;52.344;14.518;2023-01-28T03:17:40;101802.91;;;-0.97;100.00
13695;BME280;6919;52.344;14.518;2023-01-28T03:20:34;101803.22;;;-0.82;100.00
13695;BME280;6919;52.344;14.518;2023-01-28T03:23:30;101803.47;;;-0.89;100.00
13695;BME280;6919;52.344;14.518;2023-01-28T03:26:21;101806.94;;;-0.87;100.00
13695;BME280;6919;52.344;14.518;2023-01-28T03:29:13;101800.59;;;-0.82;100.00
13695;BME280;6919;52.344;14.518;2023-01-28T03:32:01;101799.56;;;-0.78;100.00
13695;BME280;6919;52.344;14.518;2023-01-28T03:34:49;101804.78;;;-0.76;100.00
13695;BME280;6919;52.344;14.518;2023-01-28T03:37:36;101803.38;;;-0.86;100.00
13695;BME280;6919;52.344;14.518;2023-01-28T03:40:07;101808.59;;;-0.85;100.00
13695;BME280;6919;52.344;14.518;2023-01-28T03:42:35;101807.63;;;-0.82;100.00
13695;BME280;6919;52.344;14.518;2023-01-28T03:45:05;101818.94;;;-0.79;100.00
13695;BME280;6919;52.344;14.518;2023-01-28T03:47:34;101813.88;;;-0.85;100.00
13695;BME280;6919;52.344;14.518;2023-01-28T03:50:04;101801.56;;;-0.84;100.00
13695;BME280;6919;52.344;14.518;2023-01-28T03:52:33;101809.91;;;-0.72;100.00
13695;BME280;6919;52.344;14.518;2023-01-28T03:55:01;101814.19;;;-0.69;100.00
13695;BME280;6919;52.344;14.518;2023-01-28T03:57:39;101813.41;;;-0.73;100.00
13695;BME280;6919;52.344;14.518;2023-01-28T04:00:12;101812.53;;;-0.72;100.00
13695;BME280;6919;52.344;14.518;2023-01-28T04:02:42;101808.09;;;-0.71;100.00
13695;BME280;6919;52.344;14.518;2023-01-28T04:05:13;101809.94;;;-0.73;100.00
13695;BME280;6919;52.344;14.518;2023-01-28T04:07:45;101806.34;;;-0.71;100.00
13695;BME280;6919;52.344;14.518;2023-01-28T04:10:15;101808.41;;;-0.79;100.00
13695;BME280;6919;52.344;14.518;2023-01-28T04:12:43;101813.56;;;-0.76;100.00
13695;BME280;6919;52.344;14.518;2023-01-28T04:15:11;101811.03;;;-0.79;100.00
13695;BME280;6919;52.344;14.518;2023-01-28T04:17:47;101814.56;;;-0.80;100.00
13695;BME280;6919;52.344;14.518;2023-01-28T04:20:17;101822.72;;;-0.63;100.00
13695;BME280;6919;52.344;14.518;2023-01-28T04:22:45;101808.53;;;-0.59;100.00
13695;BME280;6919;52.344;14.518;2023-01-28T04:25:13;101821.50;;;-0.53;100.00
13695;BME280;6919;52.344;14.518;2023-01-28T04:27:42;101817.25;;;-0.57;100.00
13695;BME280;6919;52.344;14.518;2023-01-28T04:30:11;101815.69;;;-0.62;100.00
13695;BME280;6919;52.344;14.518;2023-01-28T04:32:39;101819.31;;;-0.65;100.00
13695;BME280;6919;52.344;14.518;2023-01-28T04:35:08;101809.97;;;-0.50;100.00
13695;BME280;6919;52.344;14.518;2023-01-28T04:37:40;101817.19;;;-0.55;100.00
13695;BME280;6919;52.344;14.518;2023-01-28T04:40:10;101818.06;;;-0.55;100.00
13695;BME280;6919;52.344;14.518;2023-01-28T04:42:39;101808.41;;;-0.56;100.00
13695;BME280;6919;52.344;14.518;2023-01-28T04:45:08;101814.63;;;-0.57;100.00
13695;BME280;6919;52.344;14.518;2023-01-28T04:47:36;101813.78;;;-0.59;100.00
13695;BME280;6919;52.344;14.518;2023-01-28T04:50:06;101822.63;;;-0.60;100.00
13695;BME280;6919;52.344;14.518;2023-01-28T04:52:34;101817.47;;;-0.38;100.00
13695;BME280;6919;52.344;14.518;2023-01-28T04:55:05;101818.91;;;-0.30;100.00
13695;BME280;6919;52.344;14.518;2023-01-28T04:57:33;101819.78;;;-0.31;100.00
13695;BME280;6919;52.344;14.518;2023-01-28T05:00:03;101828.25;;;-0.46;100.00
13695;BME280;6919;52.344;14.518;2023-01-28T05:02:31;101825.97;;;-0.55;100.00
13695;BME280;6919;52.344;14.518;2023-01-28T05:04:59;101828.72;;;-0.58;100.00
13695;BME280;6919;52.344;14.518;2023-01-28T05:07:30;101818.75;;;-0.50;100.00
13695;BME280;6919;52.344;14.518;2023-01-28T05:09:58;101820.56;;;-0.52;100.00
13695;BME280;6919;52.344;14.518;2023-01-28T05:12:28;101829.28;;;-0.50;100.00
13695;BME280;6919;52.344;14.518;2023-01-28T05:14:58;101831.88;;;-0.48;100.00
13695;BME280;6919;52.344;14.518;2023-01-28T05:17:27;101832.50;;;-0.42;100.00
13695;BME280;6919;52.344;14.518;2023-01-28T05:19:56;101836.97;;;-0.44;100.00
13695;BME280;6919;52.344;14.518;2023-01-28T05:22:24;101834.41;;;-0.45;100.00
13695;BME280;6919;52.344;14.518;2023-01-28T05:24:52;101838.00;;;-0.48;100.00
13695;BME280;6919;52.344;14.518;2023-01-28T05:27:20;101835.47;;;-0.51;100.00
13695;BME280;6919;52.344;14.518;2023-01-28T05:29:50;101840.75;;;-0.51;100.00
13695;BME280;6919;52.344;14.518;2023-01-28T05:32:18;101838.78;;;-0.46;100.00
13695;BME280;6919;52.344;14.518;2023-01-28T05:34:46;101838.03;;;-0.25;100.00
13695;BME280;6919;52.344;14.518;2023-01-28T05:37:15;101842.47;;;-0.27;100.00
13695;BME280;6919;52.344;14.518;2023-01-28T05:39:43;101836.53;;;-0.32;100.00
13695;BME280;6919;52.344;14.518;2023-01-28T05:42:11;101845.50;;;-0.37;100.00
13695;BME280;6919;52.344;14.518;2023-01-28T05:44:41;101837.28;;;-0.28;100.00
13695;BME280;6919;52.344;14.518;2023-01-28T05:47:11;101838.28;;;-0.32;100.00
13695;BME280;6919;52.344;14.518;2023-01-28T05:49:39;101841.78;;;-0.32;100.00
13695;BME280;6919;52.344;14.518;2023-01-28T05:52:07;101845.25;;;-0.30;100.00
13695;BME280;6919;52.344;14.518;2023-01-28T05:54:35;101855.91;;;-0.33;100.00
13695;BME280;6919;52.344;14.518;2023-01-28T05:57:04;101853.84;;;-0.25;100.00
13695;BME280;6919;52.344;14.518;2023-01-28T05:59:32;101863.81;;;-0.33;100.00
13695;BME280;6919;52.344;14.518;2023-01-28T06:02:00;101855.75;;;-0.05;100.00
13695;BME280;6919;52.344;14.518;2023-01-28T06:04:30;101864.31;;;-0.23;100.00
13695;BME280;6919;52.344;14.518;2023-01-28T06:06:58;101859.25;;;-0.29;100.00
13695;BME280;6919;52.344;14.518;2023-01-28T06:09:26;101868.91;;;-0.28;100.00
13695;BME280;6919;52.344;14.518;2023-01-28T06:11:54;101862.66;;;-0.26;100.00
13695;BME280;6919;52.344;14.518;2023-01-28T06:14:23;101867.00;;;-0.25;100.00
13695;BME280;6919;52.344;14.518;2023-01-28T06:16:51;101857.44;;;-0.27;100.00
13695;BME280;6919;52.344;14.518;2023-01-28T06:19:19;101866.44;;;-0.33;100.00
13695;BME280;6919;52.344;14.518;2023-01-28T06:21:49;101856.88;;;-0.12;100.00
13695;BME280;6919;52.344;14.518;2023-01-28T06:24:17;101855.28;;;0.07;100.00
13695;BME280;6919;52.344;14.518;2023-01-28T06:26:45;101859.50;;;-0.12;100.00
13695;BME280;6919;52.344;14.518;2023-01-28T06:29:13;101852.34;;;-0.32;100.00
13695;BME280;6919;52.344;14.518;2023-01-28T06:31:41;101851.09;;;0.01;100.00
13695;BME280;6919;52.344;14.518;2023-01-28T06:34:10;101861.31;;;0.11;100.00
13695;BME280;6919;52.344;14.518;2023-01-28T06:36:38;101855.81;;;0.17;100.00
13695;BME280;6919;52.344;14.518;2023-01-28T06:39:08;101860.41;;;-0.36;100.00
13695;BME280;6919;52.344;14.518;2023-01-28T06:41:37;101857.94;;;-0.41;100.00
13695;BME280;6919;52.344;14.518;2023-01-28T06:44:05;101865.63;;;-0.35;100.00
13695;BME280;6919;52.344;14.518;2023-01-28T06:46:34;101861.22;;;-0.34;100.00
13695;BME280;6919;52.344;14.518;2023-01-28T06:49:02;101868.25;;;-0.35;100.00
13695;BME280;6919;52.344;14.518;2023-01-28T06:51:30;101872.69;;;-0.35;100.00
13695;BME280;6919;52.344;14.518;2023-01-28T06:53:59;101870.72;;;-0.30;100.00
13695;BME280;6919;52.344;14.518;2023-01-28T06:56:28;101860.75;;;0.03;100.00
13695;BME280;6919;52.344;14.518;2023-01-28T06:58:57;101859.81;;;0.03;100.00
13695;BME280;6919;52.344;14.518;2023-01-28T07:01:25;101866.91;;;0.01;100.00
13695;BME280;6919;52.344;14.518;2023-01-28T07:03:53;101864.97;;;0.07;100.00
13695;BME280;6919;52.344;14.518;2023-01-28T07:06:23;101869.53;;;0.01;100.00
13695;BME280;6919;52.344;14.518;2023-01-28T07:08:51;101874.19;;;-0.05;100.00
13695;BME280;6919;52.344;14.518;2023-01-28T07:11:19;101868.44;;;-0.16;100.00
13695;BME280;6919;52.344;14.518;2023-01-28T07:13:49;101868.28;;;-0.12;100.00
13695;BME280;6919;52.344;14.518;2023-01-28T07:16:17;101869.31;;;-0.16;100.00
13695;BME280;6919;52.344;14.518;2023-01-28T07:18:45;101873.56;;;-0.12;100.00
13695;BME280;6919;52.344;14.518;2023-01-28T07:21:14;101879.94;;;-0.17;100.00
13695;BME280;6919;52.344;14.518;2023-01-28T07:23:42;101868.41;;;-0.15;100.00
13695;BME280;6919;52.344;14.518;2023-01-28T07:26:10;101870.00;;;-0.11;100.00
13695;BME280;6919;52.344;14.518;2023-01-28T07:28:38;101881.22;;;-0.06;100.00
13695;BME280;6919;52.344;14.518;2023-01-28T07:31:08;101873.41;;;0.16;100.00
13695;BME280;6919;52.344;14.518;2023-01-28T07:33:36;101881.09;;;0.22;100.00
13695;BME280;6919;52.344;14.518;2023-01-28T07:36:06;101886.91;;;0.07;100.00
13695;BME280;6919;52.344;14.518;2023-01-28T07:38:34;101881.19;;;0.19;100.00
13695;BME280;6919;52.344;14.518;2023-01-28T07:41:03;101882.13;;;0.18;100.00
13695;BME280;6919;52.344;14.518;2023-01-28T07:43:31;101881.41;;;0.13;100.00
13695;BME280;6919;52.344;14.518;2023-01-28T07:45:59;101885.94;;;0.33;100.00
13695;BME280;6919;52.344;14.518;2023-01-28T07:48:29;101885.94;;;0.33;100.00
13695;BME280;6919;52.344;14.518;2023-01-28T07:50:58;101879.19;;;0.26;100.00
13695;BME280;6919;52.344;14.518;2023-01-28T07:53:27;101875.44;;;0.31;100.00
13695;BME280;6919;52.344;14.518;2023-01-28T07:55:58;101879.28;;;0.23;100.00
13695;BME280;6919;52.344;14.518;2023-01-28T07:58:27;101888.91;;;0.47;100.00
13695;BME280;6919;52.344;14.518;2023-01-28T08:00:56;101884.00;;;0.38;100.00
13695;BME280;6919;52.344;14.518;2023-01-28T08:03:26;101882.19;;;0.38;100.00
13695;BME280;6919;52.344;14.518;2023-01-28T08:05:57;101891.00;;;0.39;100.00
13695;BME280;6919;52.344;14.518;2023-01-28T08:08:26;101889.00;;;0.67;100.00
13695;BME280;6919;52.344;14.518;2023-01-28T08:10:54;101879.84;;;0.54;100.00
13695;BME280;6919;52.344;14.518;2023-01-28T08:13:22;101886.28;;;0.47;100.00
13695;BME280;6919;52.344;14.518;2023-01-28T08:15:54;101892.53;;;0.44;100.00
13695;BME280;6919;52.344;14.518;2023-01-28T08:18:23;101896.38;;;0.59;100.00
13695;BME280;6919;52.344;14.518;2023-01-28T08:20:57;101897.16;;;0.61;100.00
13695;BME280;6919;52.344;14.518;2023-01-28T08:23:26;101896.00;;;0.68;100.00
13695;BME280;6919;52.344;14.518;2023-01-28T08:25:57;101894.53;;;0.82;100.00
13695;BME280;6919;52.344;14.518;2023-01-28T08:28:26;101884.63;;;1.09;100.00
13695;BME280;6919;52.344;14.518;2023-01-28T08:30:54;101893.31;;;0.91;100.00
13695;BME280;6919;52.344;14.518;2023-01-28T08:33:22;101891.38;;;0.94;100.00
13695;BME280;6919;52.344;14.518;2023-01-28T08:35:51;101887.88;;;0.94;100.00
13695;BME280;6919;52.344;14.518;2023-01-28T08:38:20;101894.44;;;1.05;100.00
13695;BME280;6919;52.344;14.518;2023-01-28T08:40:48;101882.16;;;1.46;100.00
13695;BME280;6919;52.344;14.518;2023-01-28T08:43:20;101889.41;;;1.21;100.00
13695;BME280;6919;52.344;14.518;2023-01-28T08:45:48;101891.25;;;1.19;100.00
13695;BME280;6919;52.344;14.518;2023-01-28T08:48:18;101888.22;;;1.28;100.00
13695;BME280;6919;52.344;14.518;2023-01-28T08:50:47;101891.25;;;1.39;100.00
13695;BME280;6919;52.344;14.518;2023-01-28T08:53:20;101887.50;;;1.64;100.00
13695;BME280;6919;52.344;14.518;2023-01-28T08:55:48;101890.34;;;1.60;100.00
13695;BME280;6919;52.344;14.518;2023-01-28T08:58:17;101890.47;;;1.57;100.00
13695;BME280;6919;52.344;14.518;2023-01-28T09:00:47;101899.59;;;1.50;100.00
13695;BME280;6919;52.344;14.518;2023-01-28T09:03:16;101902.16;;;1.51;100.00
13695;BME280;6919;52.344;14.518;2023-01-28T09:05:44;101905.75;;;1.70;100.00
13695;BME280;6919;52.344;14.518;2023-01-28T09:08:15;101888.78;;;1.76;100.00
13695;BME280;6919;52.344;14.518;2023-01-28T09:10:45;101900.59;;;1.67;100.00
13695;BME280;6919;52.344;14.518;2023-01-28T09:13:14;101900.41;;;1.72;100.00
13695;BME280;6919;52.344;14.518;2023-01-28T09:15:43;101910.03;;;1.73;100.00
13695;BME280;6919;52.344;14.518;2023-01-28T09:18:11;101906.41;;;1.75;100.00
13695;BME280;6919;52.344;14.518;2023-01-28T09:20:40;101905.97;;;2.04;100.00
13695;BME280;6919;52.344;14.518;2023-01-28T09:23:09;101913.22;;;1.81;100.00
13695;BME280;6919;52.344;14.518;2023-01-28T09:25:37;101920.53;;;1.94;100.00
13695;BME280;6919;52.344;14.518;2023-01-28T09:28:07;101922.47;;;1.91;100.00
13695;BME280;6919;52.344;14.518;2023-01-28T09:30:35;101925.97;;;1.91;100.00
13695;BME280;6919;52.344;14.518;2023-01-28T09:33:06;101933.16;;;1.88;100.00
13695;BME280;6919;52.344;14.518;2023-01-28T09:35:34;101936.34;;;1.96;100.00
13695;BME280;6919;52.344;14.518;2023-01-28T09:38:03;101933.59;;;1.79;100.00
13695;BME280;6919;52.344;14.518;2023-01-28T09:40:36;101931.72;;;2.01;100.00
13695;BME280;6919;52.344;14.518;2023-01-28T09:43:30;101936.56;;;1.91;100.00
13695;BME280;6919;52.344;14.518;2023-01-28T09:46:04;101939.16;;;2.11;100.00
13695;BME280;6919;52.344;14.518;2023-01-28T09:48:38;101939.78;;;1.98;100.00
13695;BME280;6919;52.344;14.518;2023-01-28T09:51:21;101953.72;;;2.01;100.00
13695;BME280;6919;52.344;14.518;2023-01-28T09:53:56;101955.38;;;2.04;100.00
13695;BME280;6919;52.344;14.518;2023-01-28T09:56:30;101956.97;;;1.88;100.00
13695;BME280;6919;52.344;14.518;2023-01-28T09:59:16;101953.13;;;1.95;100.00
13695;BME280;6919;52.344;14.518;2023-01-28T10:01:53;101952.38;;;2.11;100.00
13695;BME280;6919;52.344;14.518;2023-01-28T10:04:42;101949.53;;;2.16;100.00
13695;BME280;6919;52.344;14.518;2023-01-28T10:07:29;101952.13;;;2.17;100.00
13695;BME280;6919;52.344;14.518;2023-01-28T10:10:08;101951.00;;;2.23;100.00
13695;BME280;6919;52.344;14.518;2023-01-28T10:13:00;101954.97;;;2.13;100.00
13695;BME280;6919;52.344;14.518;2023-01-28T10:15:50;101948.75;;;2.14;100.00
13695;BME280;6919;52.344;14.518;2023-01-28T10:18:33;101951.56;;;2.11;100.00
13695;BME280;6919;52.344;14.518;2023-01-28T10:21:11;101952.38;;;2.11;100.00
13695;BME280;6919;52.344;14.518;2023-01-28T10:23:58;101940.97;;;2.11;100.00
13695;BME280;6919;52.344;14.518;2023-01-28T10:26:33;101943.38;;;2.15;100.00
13695;BME280;6919;52.344;14.518;2023-01-28T10:29:13;101925.16;;;2.28;100.00
13695;BME280;6919;52.344;14.518;2023-01-28T10:31:57;101934.72;;;2.32;100.00
13695;BME280;6919;52.344;14.518;2023-01-28T10:34:26;101931.91;;;2.35;100.00
13695;BME280;6919;52.344;14.518;2023-01-28T10:36:56;101925.84;;;2.51;100.00
13695;BME280;6919;52.344;14.518;2023-01-28T10:39:27;101923.56;;;2.44;100.00
13695;BME280;6919;52.344;14.518;2023-01-28T10:41:56;101932.50;;;2.41;100.00
13695;BME280;6919;52.344;14.518;2023-01-28T10:44:35;101930.44;;;2.66;100.00
13695;BME280;6919;52.344;14.518;2023-01-28T10:47:13;101925.13;;;2.85;100.00
13695;BME280;6919;52.344;14.518;2023-01-28T10:49:48;101931.44;;;2.64;100.00
13695;BME280;6919;52.344;14.518;2023-01-28T10:52:18;101932.38;;;2.44;100.00
13695;BME280;6919;52.344;14.518;2023-01-28T10:54:47;101934.63;;;2.52;100.00
13695;BME280;6919;52.344;14.518;2023-01-28T10:57:17;101919.69;;;2.51;100.00
13695;BME280;6919;52.344;14.518;2023-01-28T10:59:46;101927.84;;;2.65;100.00
13695;BME280;6919;52.344;14.518;2023-01-28T11:02:28;101932.84;;;2.52;100.00
13695;BME280;6919;52.344;14.518;2023-01-28T11:05:14;101916.09;;;2.70;100.00
13695;BME280;6919;52.344;14.518;2023-01-28T11:07:43;101922.56;;;2.65;100.00
13695;BME280;6919;52.344;14.518;2023-01-28T11:10:31;101906.16;;;2.75;100.00
13695;BME280;6919;52.344;14.518;2023-01-28T11:13:02;101914.59;;;2.65;100.00
13695;BME280;6919;52.344;14.518;2023-01-28T11:15:32;101914.53;;;2.66;100.00
13695;BME280;6919;52.344;14.518;2023-01-28T11:18:05;101911.22;;;2.80;100.00
13695;BME280;6919;52.344;14.518;2023-01-28T11:20:49;101916.09;;;2.89;100.00
13695;BME280;6919;52.344;14.518;2023-01-28T11:23:23;101917.53;;;2.96;100.00
13695;BME280;6919;52.344;14.518;2023-01-28T11:26:03;101916.66;;;2.95;100.00
13695;BME280;6919;52.344;14.518;2023-01-28T11:28:34;101915.78;;;2.95;100.00
13695;BME280;6919;52.344;14.518;2023-01-28T11:31:07;101916.59;;;2.97;100.00
13695;BME280;6919;52.344;14.518;2023-01-28T11:33:43;101910.81;;;2.89;100.00
13695;BME280;6919;52.344;14.518;2023-01-28T11:36:15;101901.31;;;3.02;100.00
13695;BME280;6919;52.344;14.518;2023-01-28T11:38:51;101903.94;;;2.85;100.00
13695;BME280;6919;52.344;14.518;2023-01-28T11:41:27;101897.72;;;2.67;100.00
13695;BME280;6919;52.344;14.518;2023-01-28T11:43:58;101903.69;;;2.89;100.00
13695;BME280;6919;52.344;14.518;2023-01-28T11:50:13;101904.09;;;2.82;100.00
13695;BME280;6919;52.344;14.518;2023-01-28T11:52:59;101906.94;;;2.96;100.00
13695;BME280;6919;52.344;14.518;2023-01-28T11:55:58;101904.63;;;2.88;100.00
13695;BME280;6919;52.344;14.518;2023-01-28T11:58:45;101906.78;;;2.99;100.00
13695;BME280;6919;52.344;14.518;2023-01-28T12:01:27;101909.44;;;2.80;100.00
13695;BME280;6919;52.344;14.518;2023-01-28T12:04:34;101908.56;;;2.98;100.00
13695;BME280;6919;52.344;14.518;2023-01-28T12:07:31;101902.28;;;2.82;100.00
13695;BME280;6919;52.344;14.518;2023-01-28T12:10:10;101898.94;;;2.79;100.00
13695;BME280;6919;52.344;14.518;2023-01-28T12:13:03;101894.03;;;2.88;100.00
13695;BME280;6919;52.344;14.518;2023-01-28T12:16:12;101891.06;;;2.77;100.00
13695;BME280;6919;52.344;14.518;2023-01-28T12:19:13;101876.59;;;2.84;100.00
13695;BME280;6919;52.344;14.518;2023-01-28T12:22:21;101872.66;;;2.74;100.00
13695;BME280;6919;52.344;14.518;2023-01-28T12:25:14;101877.19;;;2.54;100.00
13695;BME280;6919;52.344;14.518;2023-01-28T12:27:51;101878.56;;;2.44;100.00
13695;BME280;6919;52.344;14.518;2023-01-28T12:30:43;101881.75;;;2.69;100.00
13695;BME280;6919;52.344;14.518;2023-01-28T12:33:58;101875.53;;;2.70;100.00
13695;BME280;6919;52.344;14.518;2023-01-28T12:36:45;101867.38;;;2.74;100.00
13695;BME280;6919;52.344;14.518;2023-01-28T12:39:36;101873.97;;;2.47;100.00
13695;BME280;6919;52.344;14.518;2023-01-28T12:42:12;101869.13;;;2.57;100.00
13695;BME280;6919;52.344;14.518;2023-01-28T12:44:48;101862.41;;;2.67;100.00
13695;BME280;6919;52.344;14.518;2023-01-28T12:47:23;101866.59;;;2.54;100.00
13695;BME280;6919;52.344;14.518;2023-01-28T12:49:59;101873.19;;;2.45;100.00
13695;BME280;6919;52.344;14.518;2023-01-28T12:52:34;101870.47;;;2.47;100.00
13695;BME280;6919;52.344;14.518;2023-01-28T12:55:17;101868.78;;;2.63;100.00
13695;BME280;6919;52.344;14.518;2023-01-28T12:57:48;101869.59;;;2.65;100.00
13695;BME280;6919;52.344;14.518;2023-01-28T13:00:28;101875.16;;;2.77;100.00
13695;BME280;6919;52.344;14.518;2023-01-28T13:03:09;101873.13;;;2.65;100.00
13695;BME280;6919;52.344;14.518;2023-01-28T13:05:43;101878.63;;;2.61;100.00
13695;BME280;6919;52.344;14.518;2023-01-28T13:08:19;101870.69;;;2.61;100.00
13695;BME280;6919;52.344;14.518;2023-01-28T13:10:52;101872.59;;;2.57;100.00
13695;BME280;6919;52.344;14.518;2023-01-28T13:13:28;101869.13;;;2.57;100.00
13695;BME280;6919;52.344;14.518;2023-01-28T13:15:58;101877.84;;;2.22;100.00
13695;BME280;6919;52.344;14.518;2023-01-28T13:18:33;101883.00;;;2.25;100.00
13695;BME280;6919;52.344;14.518;2023-01-28T13:21:03;101874.38;;;2.20;100.00
13695;BME280;6919;52.344;14.518;2023-01-28T13:23:43;101869.47;;;2.31;100.00